QTR22U VAPO-VABB
Flight info
| Callsign | QTR22U |
|---|---|
| Flight time | N/A |
| Altitude | 18000 |
| Route | PPN W28 BBB |
| Aircraft | A332/H-SDE3GHIJ2J3J5M1RVWXY/LB2D1 |
Departure
| Time | N/A |
|---|---|
| Airport | Pune International Airport (VAPO) |
Arrival
| Time | 2026-04-28 14:57 |
|---|---|
| Airport | Chhatrapati Shivaji Maharaj International Airport (VABB) |
| Time | Latitude | Longitude | Altitude | Speed | Heading |
|---|---|---|---|---|---|
| 2026-04-28 14:31 | 18.87278 | 73.59287 | 34883 ft | 163 kts | 266° |
| 2026-04-28 14:31 | 18.86904 | 73.57921 | 33330 ft | 223 kts | 251° |
| 2026-04-28 14:31 | 18.86127 | 73.56319 | 31950 ft | 269 kts | 245° |
| 2026-04-28 14:32 | 18.85010 | 73.54471 | 29495 ft | 333 kts | 237° |
| 2026-04-28 14:32 | 18.83395 | 73.52427 | 26623 ft | 389 kts | 230° |
| 2026-04-28 14:32 | 18.81360 | 73.50280 | 23911 ft | 439 kts | 225° |
| 2026-04-28 14:32 | 18.79063 | 73.48053 | 21716 ft | 456 kts | 224° |
| 2026-04-28 14:33 | 18.76727 | 73.45761 | 20192 ft | 455 kts | 230° |
| 2026-04-28 14:33 | 18.75071 | 73.43067 | 19387 ft | 433 kts | 248° |
| 2026-04-28 14:33 | 18.74329 | 73.40104 | 18922 ft | 406 kts | 267° |
| 2026-04-28 14:33 | 18.74529 | 73.37233 | 18358 ft | 384 kts | 286° |
| 2026-04-28 14:34 | 18.77436 | 73.32721 | 15970 ft | 378 kts | 326° |
| 2026-04-28 14:34 | 18.79729 | 73.31381 | 14823 ft | 378 kts | 334° |
| 2026-04-28 14:34 | 18.81324 | 73.30628 | 14100 ft | 377 kts | 336° |
| 2026-04-28 14:35 | 18.84564 | 73.29239 | 12689 ft | 372 kts | 338° |
| 2026-04-28 14:35 | 18.86993 | 73.28372 | 11677 ft | 366 kts | 343° |
| 2026-04-28 14:35 | 18.89460 | 73.27779 | 10677 ft | 362 kts | 350° |
| 2026-04-28 14:35 | 18.91969 | 73.27573 | 9697 ft | 359 kts | 358° |
| 2026-04-28 14:36 | 18.94420 | 73.27291 | 8670 ft | 351 kts | 343° |
| 2026-04-28 14:36 | 18.96595 | 73.26249 | 7999 ft | 335 kts | 325° |
| 2026-04-28 14:36 | 18.98263 | 73.24663 | 7649 ft | 313 kts | 309° |
| 2026-04-28 14:36 | 18.99467 | 73.22875 | 7337 ft | 293 kts | 303° |
| 2026-04-28 14:37 | 19.00530 | 73.21113 | 7050 ft | 276 kts | 302° |
| 2026-04-28 14:37 | 19.01529 | 73.19429 | 6628 ft | 266 kts | 303° |
| 2026-04-28 14:37 | 19.02503 | 73.17788 | 6161 ft | 260 kts | 303° |
| 2026-04-28 14:37 | 19.03458 | 73.16181 | 5627 ft | 257 kts | 303° |
| 2026-04-28 14:38 | 19.04405 | 73.14591 | 5096 ft | 254 kts | 303° |
| 2026-04-28 14:38 | 19.05031 | 73.13540 | 4727 ft | 253 kts | 303° |
| 2026-04-28 14:38 | 19.05968 | 73.11970 | 4137 ft | 252 kts | 303° |
| 2026-04-28 14:38 | 19.06902 | 73.10404 | 3551 ft | 252 kts | 303° |
| 2026-04-28 14:39 | 19.07839 | 73.08834 | 3005 ft | 252 kts | 303° |
| 2026-04-28 14:39 | 19.08705 | 73.07231 | 2744 ft | 251 kts | 294° |
| 2026-04-28 14:39 | 19.09162 | 73.05467 | 2697 ft | 244 kts | 277° |
| 2026-04-28 14:39 | 19.09183 | 73.03734 | 2687 ft | 232 kts | 269° |
| 2026-04-28 14:40 | 19.09104 | 73.02069 | 2615 ft | 222 kts | 269° |
| 2026-04-28 14:40 | 19.09077 | 73.00990 | 2451 ft | 221 kts | 270° |
| 2026-04-28 14:40 | 19.09054 | 72.98873 | 2055 ft | 208 kts | 269° |
| 2026-04-28 14:40 | 19.09031 | 72.97384 | 1793 ft | 196 kts | 269° |
| 2026-04-28 14:41 | 19.09010 | 72.95977 | 1533 ft | 186 kts | 268° |
| 2026-04-28 14:41 | 19.08990 | 72.94657 | 1295 ft | 178 kts | 269° |
| 2026-04-28 14:41 | 19.08971 | 72.93395 | 1068 ft | 162 kts | 269° |
| 2026-04-28 14:41 | 19.08954 | 72.92228 | 891 ft | 158 kts | 269° |
| 2026-04-28 14:42 | 19.08936 | 72.91071 | 692 ft | 156 kts | 270° |
| 2026-04-28 14:42 | 19.08921 | 72.89923 | 511 ft | 158 kts | 269° |
| 2026-04-28 14:42 | 19.08912 | 72.88768 | 359 ft | 158 kts | 274° |
| 2026-04-28 14:42 | 19.09392 | 72.87654 | 790 ft | 183 kts | 310° |
| 2026-04-28 14:43 | 19.10486 | 72.86803 | 1385 ft | 211 kts | 333° |
| 2026-04-28 14:43 | 19.11970 | 72.86479 | 2354 ft | 223 kts | 356° |
| 2026-04-28 14:43 | 19.13644 | 72.86483 | 2898 ft | 265 kts | 0° |
| 2026-04-28 14:43 | 19.15474 | 72.86534 | 3691 ft | 254 kts | 360° |
| 2026-04-28 14:44 | 19.17129 | 72.86579 | 4326 ft | 228 kts | 360° |
| 2026-04-28 14:44 | 19.18684 | 72.86660 | 4672 ft | 222 kts | 6° |
| 2026-04-28 14:44 | 19.20080 | 72.87336 | 4937 ft | 225 kts | 40° |
| 2026-04-28 14:44 | 19.20915 | 72.88770 | 5366 ft | 238 kts | 72° |
| 2026-04-28 14:45 | 19.21106 | 72.90528 | 5708 ft | 243 kts | 87° |
| 2026-04-28 14:45 | 19.21075 | 72.92326 | 5784 ft | 244 kts | 90° |
| 2026-04-28 14:45 | 19.21016 | 72.94121 | 5790 ft | 245 kts | 90° |
| 2026-04-28 14:45 | 19.20958 | 72.95899 | 5797 ft | 245 kts | 90° |
| 2026-04-28 14:46 | 19.20888 | 72.97696 | 5796 ft | 245 kts | 90° |
| 2026-04-28 14:46 | 19.20817 | 72.99497 | 5794 ft | 245 kts | 90° |
| 2026-04-28 14:46 | 19.20745 | 73.01301 | 5793 ft | 245 kts | 90° |
| 2026-04-28 14:46 | 19.20671 | 73.03102 | 5792 ft | 245 kts | 90° |
| 2026-04-28 14:47 | 19.20598 | 73.04907 | 5788 ft | 245 kts | 90° |
| 2026-04-28 14:47 | 19.20525 | 73.06730 | 5499 ft | 251 kts | 90° |
| 2026-04-28 14:47 | 19.20450 | 73.08560 | 5293 ft | 247 kts | 90° |
| 2026-04-28 14:47 | 19.20373 | 73.10372 | 5087 ft | 244 kts | 90° |
| 2026-04-28 14:48 | 19.20294 | 73.12154 | 4872 ft | 242 kts | 90° |
| 2026-04-28 14:48 | 19.20213 | 73.13910 | 4624 ft | 241 kts | 90° |
| 2026-04-28 14:48 | 19.20127 | 73.15675 | 4390 ft | 239 kts | 90° |
| 2026-04-28 14:48 | 19.20045 | 73.17433 | 4132 ft | 239 kts | 90° |
| 2026-04-28 14:49 | 19.19966 | 73.19182 | 3929 ft | 237 kts | 90° |
| 2026-04-28 14:49 | 19.19893 | 73.20915 | 3791 ft | 235 kts | 90° |
| 2026-04-28 14:49 | 19.19594 | 73.22615 | 3777 ft | 238 kts | 114° |
| 2026-04-28 14:49 | 19.18540 | 73.23939 | 3790 ft | 238 kts | 148° |
| 2026-04-28 14:50 | 19.17000 | 73.24519 | 3793 ft | 237 kts | 173° |
| 2026-04-28 14:50 | 19.15354 | 73.24664 | 3802 ft | 238 kts | 179° |
| 2026-04-28 14:50 | 19.13720 | 73.24702 | 3708 ft | 239 kts | 186° |
| 2026-04-28 14:50 | 19.12159 | 73.24154 | 3377 ft | 237 kts | 218° |
| 2026-04-28 14:51 | 19.11109 | 73.22878 | 3206 ft | 228 kts | 243° |
| 2026-04-28 14:51 | 19.10428 | 73.21371 | 2972 ft | 226 kts | 248° |
| 2026-04-28 14:51 | 19.09842 | 73.19841 | 2801 ft | 223 kts | 253° |
| 2026-04-28 14:51 | 19.09499 | 73.18253 | 2768 ft | 222 kts | 262° |
| 2026-04-28 14:52 | 19.09341 | 73.16638 | 2692 ft | 219 kts | 269° |
| 2026-04-28 14:52 | 19.09307 | 73.15039 | 2687 ft | 218 kts | 271° |
| 2026-04-28 14:52 | 19.09292 | 73.13445 | 2706 ft | 216 kts | 271° |
| 2026-04-28 14:52 | 19.09269 | 73.11851 | 2697 ft | 217 kts | 270° |
| 2026-04-28 14:53 | 19.09238 | 73.10251 | 2695 ft | 218 kts | 270° |
| 2026-04-28 14:53 | 19.09204 | 73.08647 | 2694 ft | 218 kts | 270° |
| 2026-04-28 14:53 | 19.09172 | 73.07091 | 2682 ft | 203 kts | 270° |
| 2026-04-28 14:53 | 19.09145 | 73.05621 | 2692 ft | 199 kts | 270° |
| 2026-04-28 14:54 | 19.09124 | 73.04155 | 2701 ft | 200 kts | 270° |
| 2026-04-28 14:54 | 19.09108 | 73.02704 | 2686 ft | 199 kts | 271° |
| 2026-04-28 14:54 | 19.09090 | 73.01280 | 2496 ft | 189 kts | 271° |
| 2026-04-28 14:54 | 19.09069 | 72.99904 | 2229 ft | 184 kts | 270° |
| 2026-04-28 14:55 | 19.09049 | 72.98590 | 1980 ft | 174 kts | 269° |
| 2026-04-28 14:55 | 19.09030 | 72.97333 | 1780 ft | 170 kts | 270° |
| 2026-04-28 14:55 | 19.09012 | 72.96079 | 1554 ft | 171 kts | 268° |
| 2026-04-28 14:55 | 19.08993 | 72.94818 | 1322 ft | 171 kts | 269° |
| 2026-04-28 14:56 | 19.08975 | 72.93566 | 1104 ft | 169 kts | 269° |
| 2026-04-28 14:56 | 19.08955 | 72.92332 | 898 ft | 167 kts | 269° |
| 2026-04-28 14:56 | 19.08933 | 72.91099 | 716 ft | 167 kts | 270° |
| 2026-04-28 14:56 | 19.08918 | 72.89880 | 538 ft | 167 kts | 269° |
| 2026-04-28 14:57 | 19.08893 | 72.88661 | 307 ft | 167 kts | 269° |
| 2026-04-28 14:57 | 19.08885 | 72.87834 | 160 ft | 167 kts | 269° |
| 2026-04-28 14:57 | 19.08863 | 72.86443 | 34 ft | 79 kts | 270° |
| 2026-04-28 14:57 | 19.08871 | 72.85981 | 31 ft | 47 kts | 279° |
| 2026-04-28 14:58 | 19.08955 | 72.85831 | 31 ft | 14 kts | 303° |
| 2026-04-28 14:58 | 19.09005 | 72.85749 | 31 ft | 13 kts | 303° |
| 2026-04-28 14:58 | 19.09017 | 72.85736 | 31 ft | 1 kts | 321° |
| 2026-04-28 14:58 | 19.09027 | 72.85732 | 31 ft | 2 kts | 351° |
| 2026-04-28 14:59 | 19.09036 | 72.85741 | 31 ft | 4 kts | 44° |
| 2026-04-28 14:59 | 19.09039 | 72.85784 | 32 ft | 12 kts | 92° |
| 2026-04-28 14:59 | 19.09030 | 72.85938 | 32 ft | 28 kts | 90° |
| 2026-04-28 14:59 | 19.09031 | 72.86113 | 33 ft | 20 kts | 89° |
| 2026-04-28 15:00 | 19.09038 | 72.86318 | 35 ft | 35 kts | 88° |
| 2026-04-28 15:00 | 19.09041 | 72.86623 | 37 ft | 48 kts | 89° |
| 2026-04-28 15:00 | 19.09045 | 72.86919 | 37 ft | 38 kts | 89° |
| 2026-04-28 15:00 | 19.09047 | 72.87111 | 38 ft | 26 kts | 89° |
| 2026-04-28 15:01 | 19.09055 | 72.87216 | 38 ft | 7 kts | 76° |
| 2026-04-28 15:01 | 19.09088 | 72.87267 | 38 ft | 0 kts | 30° |
| 2026-04-28 15:01 | 19.09139 | 72.87285 | 38 ft | 15 kts | 6° |
| 2026-04-28 15:01 | 19.09170 | 72.87288 | 38 ft | 5 kts | 4° |
| 2026-04-28 15:02 | 19.09182 | 72.87287 | 38 ft | 1 kts | 352° |
| 2026-04-28 15:02 | 19.09199 | 72.87285 | 38 ft | 4 kts | 356° |
| 2026-04-28 15:02 | 19.09227 | 72.87295 | 38 ft | 6 kts | 31° |
| 2026-04-28 15:02 | 19.09242 | 72.87330 | 38 ft | 8 kts | 71° |
| 2026-04-28 15:03 | 19.09284 | 72.87360 | 38 ft | 10 kts | 15° |
| 2026-04-28 15:03 | 19.09366 | 72.87378 | 38 ft | 13 kts | 26° |
| 2026-04-28 15:03 | 19.09419 | 72.87372 | 38 ft | 8 kts | 326° |
| 2026-04-28 15:03 | 19.09460 | 72.87335 | 38 ft | 0 kts | 319° |